createdAt,value
2023-01-02T00:02:17.123Z,62.90
2023-01-02T00:05:02.814Z,62.70
2023-01-02T00:07:48.297Z,62.70
2023-01-02T00:10:33.529Z,62.60
2023-01-02T00:13:19.041Z,62.70
2023-01-02T00:16:04.918Z,62.80
2023-01-02T00:18:53.316Z,62.90
2023-01-02T00:21:39.132Z,63.00
2023-01-02T00:24:26.680Z,63.40
2023-01-02T00:27:14.423Z,63.30
2023-01-02T00:30:00.148Z,63.00
2023-01-02T00:32:48.063Z,63.30
2023-01-02T00:35:36.561Z,63.20
2023-01-02T00:38:22.010Z,63.40
2023-01-02T00:41:07.997Z,63.30
2023-01-02T00:43:53.314Z,63.30
2023-01-02T00:46:39.638Z,63.40
2023-01-02T00:49:25.297Z,63.40
2023-01-02T00:52:11.145Z,63.40
2023-01-02T00:54:56.669Z,63.40
2023-01-02T00:57:42.226Z,63.40
2023-01-02T01:00:27.928Z,63.50
2023-01-02T01:03:13.632Z,63.60
2023-01-02T01:05:59.425Z,63.60
2023-01-02T01:08:47.721Z,63.60
2023-01-02T01:11:35.299Z,63.80
2023-01-02T01:14:21.160Z,63.40
2023-01-02T01:17:07.128Z,63.60
2023-01-02T01:19:52.699Z,63.50
2023-01-02T01:22:38.895Z,63.50
2023-01-02T01:25:24.301Z,63.50
2023-01-02T01:28:09.859Z,63.50
2023-01-02T01:30:55.146Z,63.60
2023-01-02T01:33:44.296Z,63.70
2023-01-02T01:36:30.502Z,63.60
2023-01-02T01:39:19.223Z,63.70
2023-01-02T01:42:05.155Z,63.60
2023-01-02T01:44:53.642Z,63.60
2023-01-02T01:47:52.514Z,63.60
2023-01-02T01:50:38.169Z,63.50
2023-01-02T01:53:24.614Z,63.50
2023-01-02T01:56:15.123Z,63.20
2023-01-02T01:59:03.078Z,63.30
2023-01-02T02:01:52.000Z,63.30
2023-01-02T02:04:41.027Z,63.60
2023-01-02T02:07:30.105Z,63.60
2023-01-02T02:10:15.488Z,63.70
2023-01-02T02:13:00.633Z,63.60
2023-01-02T02:16:06.823Z,64.60
2023-01-02T02:19:00.775Z,63.70
2023-01-02T02:21:55.253Z,63.80
2023-01-02T02:25:02.133Z,63.90
2023-01-02T02:28:05.844Z,63.80
2023-01-02T02:31:12.079Z,63.80
2023-01-02T02:34:11.560Z,63.80
2023-01-02T02:37:30.931Z,63.40
2023-01-02T02:40:27.186Z,63.30
2023-01-02T02:43:27.512Z,63.40
2023-01-02T02:46:43.168Z,63.00
2023-01-02T02:49:46.816Z,63.00
2023-01-02T02:52:56.677Z,62.50
2023-01-02T02:55:46.088Z,62.30
2023-01-02T02:58:33.096Z,62.20
2023-01-02T03:01:19.725Z,62.10
2023-01-02T03:04:22.503Z,62.00
2023-01-02T03:07:29.740Z,61.80
2023-01-02T03:10:24.303Z,61.70
2023-01-02T03:13:40.570Z,61.30
2023-01-02T03:17:01.084Z,61.10
2023-01-02T03:19:52.607Z,60.70
2023-01-02T03:22:46.090Z,60.60
2023-01-02T03:25:34.665Z,60.90
2023-01-02T03:28:23.597Z,60.60
2023-01-02T03:31:13.861Z,60.40
2023-01-02T03:34:04.941Z,60.30
2023-01-02T03:36:55.669Z,60.60
2023-01-02T03:39:47.737Z,60.30
2023-01-02T03:42:40.374Z,60.30
2023-01-02T03:45:33.216Z,61.00
2023-01-02T03:48:43.675Z,60.30
2023-01-02T03:51:31.114Z,60.10
2023-01-02T03:54:18.094Z,60.00
2023-01-02T03:57:28.094Z,60.00
2023-01-02T04:00:16.953Z,60.10
2023-01-02T04:03:02.581Z,60.00
2023-01-02T04:06:16.774Z,59.90
2023-01-02T04:09:10.532Z,59.70
2023-01-02T04:12:01.591Z,59.80
2023-01-02T04:14:53.587Z,59.70
2023-01-02T04:18:21.828Z,60.10
2023-01-02T04:21:15.750Z,59.90
2023-01-02T04:24:11.196Z,59.80
2023-01-02T04:27:11.486Z,59.70
2023-01-02T04:29:57.090Z,59.20
2023-01-02T04:32:44.506Z,59.10
2023-01-02T04:35:30.307Z,59.20
2023-01-02T04:38:20.306Z,59.10
2023-01-02T04:41:07.385Z,59.20
2023-01-02T04:44:01.923Z,59.10
2023-01-02T04:46:50.022Z,59.00
2023-01-02T04:49:35.684Z,58.70
2023-01-02T04:52:20.989Z,58.90
2023-01-02T04:55:10.029Z,58.70
2023-01-02T04:57:57.799Z,58.50
2023-01-02T05:00:45.504Z,58.50
2023-01-02T05:03:33.969Z,58.50
2023-01-02T05:06:19.875Z,58.40
2023-01-02T05:09:05.261Z,58.50
2023-01-02T05:11:50.816Z,58.00
2023-01-02T05:14:38.496Z,58.00
2023-01-02T05:17:24.265Z,57.90
2023-01-02T05:20:12.664Z,57.80
2023-01-02T05:23:16.601Z,57.60
2023-01-02T05:26:02.044Z,57.30
2023-01-02T05:28:53.141Z,57.50
2023-01-02T05:31:38.659Z,57.80
2023-01-02T05:34:24.317Z,57.70
2023-01-02T05:37:11.866Z,58.10
2023-01-02T05:39:57.175Z,58.00
2023-01-02T05:42:42.814Z,58.00
2023-01-02T05:45:28.554Z,58.00
2023-01-02T05:48:14.736Z,58.20
2023-01-02T05:51:04.713Z,58.30
2023-01-02T05:53:55.042Z,58.10
2023-01-02T05:56:40.568Z,58.20
2023-01-02T05:59:26.148Z,58.20
2023-01-02T06:02:11.727Z,57.90
2023-01-02T06:04:57.475Z,58.40
2023-01-02T06:07:42.994Z,57.50
2023-01-02T06:10:28.551Z,57.50
2023-01-02T06:13:13.907Z,56.90
2023-01-02T06:16:00.459Z,57.10
2023-01-02T06:18:48.966Z,57.00
2023-01-02T06:21:34.542Z,57.10
2023-01-02T06:24:19.998Z,57.10
2023-01-02T06:27:05.600Z,57.10
2023-01-02T06:29:51.079Z,57.30
2023-01-02T06:32:36.584Z,57.50
2023-01-02T06:35:22.225Z,57.50
2023-01-02T06:38:07.492Z,56.90
2023-01-02T06:41:00.341Z,56.80
2023-01-02T06:43:48.825Z,56.90
2023-01-02T06:46:34.563Z,56.50
2023-01-02T06:49:19.994Z,56.30
2023-01-02T06:52:07.878Z,56.00
2023-01-02T06:54:55.621Z,56.10
2023-01-02T06:57:43.413Z,55.90
2023-01-02T07:00:29.129Z,55.60
2023-01-02T07:03:15.305Z,55.20
2023-01-02T07:06:12.523Z,54.90
2023-01-02T07:09:00.870Z,54.80
2023-01-02T07:11:46.184Z,54.60
2023-01-02T07:14:31.512Z,54.60
2023-01-02T07:17:17.208Z,54.70
2023-01-02T07:20:02.786Z,54.70
2023-01-02T07:22:53.238Z,54.70
2023-01-02T07:25:44.252Z,54.40
2023-01-02T07:28:31.712Z,54.40
2023-01-02T07:31:22.575Z,54.20
2023-01-02T07:34:09.949Z,53.90
2023-01-02T07:36:55.158Z,53.70
2023-01-02T07:39:43.639Z,53.40
2023-01-02T07:42:29.040Z,53.40
2023-01-02T07:45:17.079Z,53.10
2023-01-02T07:48:02.515Z,53.30
2023-01-02T07:50:48.136Z,53.20
2023-01-02T07:53:34.852Z,52.70
2023-01-02T07:56:20.130Z,52.30
2023-01-02T07:59:05.704Z,52.00
2023-01-02T08:01:54.193Z,52.00
2023-01-02T08:04:40.435Z,51.80
2023-01-02T08:07:28.112Z,51.40
2023-01-02T08:10:16.539Z,51.00
2023-01-02T08:13:01.783Z,50.40
2023-01-02T08:15:47.251Z,50.40
2023-01-02T08:18:35.383Z,49.80
2023-01-02T08:21:21.327Z,49.50
2023-01-02T08:24:08.212Z,49.60
2023-01-02T08:26:54.476Z,49.70
2023-01-02T08:29:40.149Z,49.90
2023-01-02T08:32:25.899Z,49.70
2023-01-02T08:35:11.928Z,49.40
2023-01-02T08:37:57.682Z,48.80
2023-01-02T08:40:42.996Z,48.50
2023-01-02T08:43:31.177Z,48.50
2023-01-02T08:46:19.365Z,48.30
2023-01-02T08:49:04.709Z,47.80
2023-01-02T08:51:50.324Z,47.60
2023-01-02T08:54:36.253Z,48.00
2023-01-02T08:57:27.063Z,47.20
2023-01-02T09:00:13.040Z,46.90
2023-01-02T09:02:59.180Z,47.00
2023-01-02T09:05:44.521Z,46.30
2023-01-02T09:08:31.655Z,46.00
2023-01-02T09:11:29.524Z,45.90
2023-01-02T09:14:17.769Z,45.70
2023-01-02T09:17:05.264Z,45.60
2023-01-02T09:19:50.452Z,45.60
2023-01-02T09:22:36.876Z,45.60
2023-01-02T09:25:24.493Z,45.40
2023-01-02T09:28:15.048Z,45.30
2023-01-02T09:31:08.612Z,45.70
2023-01-02T09:33:57.281Z,44.70
2023-01-02T09:36:42.858Z,44.80
2023-01-02T09:39:32.913Z,45.00
2023-01-02T09:42:21.317Z,44.40
2023-01-02T09:45:12.633Z,43.90
2023-01-02T09:47:59.793Z,44.00
2023-01-02T09:50:50.530Z,43.80
2023-01-02T09:53:36.054Z,43.50
2023-01-02T09:56:33.760Z,43.40
2023-01-02T09:59:32.621Z,43.20
2023-01-02T10:02:33.859Z,42.90
2023-01-02T10:05:51.796Z,42.50
2023-01-02T10:08:59.120Z,41.90
2023-01-02T10:12:12.411Z,41.70
2023-01-02T10:15:02.675Z,41.30
2023-01-02T10:17:52.365Z,41.40
2023-01-02T10:20:42.640Z,41.00
2023-01-02T10:23:36.636Z,40.70
2023-01-02T10:26:27.651Z,40.40
2023-01-02T10:29:35.413Z,40.20
2023-01-02T10:32:23.046Z,40.40
2023-01-02T10:35:08.721Z,40.30
2023-01-02T10:37:56.497Z,40.30
2023-01-02T10:40:47.028Z,40.50
2023-01-02T10:43:35.116Z,40.50
2023-01-02T10:46:22.888Z,40.70
2023-01-02T10:49:11.927Z,41.00
2023-01-02T10:52:23.654Z,41.30
2023-01-02T10:55:09.221Z,41.40
2023-01-02T10:58:04.333Z,41.40
2023-01-02T11:01:19.104Z,41.40
2023-01-02T11:04:05.166Z,41.30
2023-01-02T11:07:00.466Z,41.20
2023-01-02T11:09:55.169Z,40.90
2023-01-02T11:12:52.765Z,41.10
2023-01-02T11:15:57.262Z,41.40
2023-01-02T11:18:59.748Z,41.40
2023-01-02T11:21:46.953Z,41.50
2023-01-02T11:24:59.328Z,41.90
2023-01-02T11:27:46.223Z,42.50
2023-01-02T11:30:35.880Z,43.00
2023-01-02T11:33:31.426Z,43.50
2023-01-02T11:36:19.504Z,44.00
2023-01-02T11:39:26.615Z,44.70
2023-01-02T11:42:46.048Z,44.40
2023-01-02T11:45:32.988Z,44.70
2023-01-02T11:48:22.668Z,44.70
2023-01-02T11:51:18.531Z,45.00
2023-01-02T11:54:10.322Z,44.90
2023-01-02T11:57:03.682Z,44.80
2023-01-02T11:59:51.777Z,44.70
2023-01-02T12:02:43.455Z,44.90
2023-01-02T12:05:42.741Z,45.00
2023-01-02T12:08:51.591Z,45.40
2023-01-02T12:12:15.931Z,45.90
2023-01-02T12:15:10.358Z,45.70
2023-01-02T12:18:17.166Z,50.60
2023-01-02T12:21:36.651Z,49.70
2023-01-02T12:24:30.045Z,48.00
2023-01-02T12:27:39.342Z,47.30
2023-01-02T12:30:31.849Z,46.70
2023-01-02T12:33:43.404Z,46.20
2023-01-02T12:36:49.868Z,46.20
2023-01-02T12:40:12.062Z,46.00
2023-01-02T12:43:22.142Z,46.00
2023-01-02T12:46:35.229Z,46.00
2023-01-02T12:49:58.552Z,46.10
2023-01-02T12:52:50.125Z,46.00
2023-01-02T12:55:53.615Z,45.90
2023-01-02T12:59:04.490Z,45.90
2023-01-02T13:01:58.424Z,46.10
2023-01-02T13:04:56.556Z,46.90
2023-01-02T13:08:04.174Z,47.20
2023-01-02T13:10:53.274Z,47.30
2023-01-02T13:13:38.920Z,47.70
2023-01-02T13:16:29.753Z,47.20
2023-01-02T13:19:31.046Z,47.30
2023-01-02T13:22:29.947Z,47.30
2023-01-02T13:25:19.814Z,46.90
2023-01-02T13:28:07.918Z,46.90
2023-01-02T13:31:35.459Z,46.80
2023-01-02T13:34:22.268Z,46.60
2023-01-02T13:37:16.431Z,46.80
2023-01-02T13:40:04.253Z,46.80
2023-01-02T13:42:59.166Z,47.10
2023-01-02T13:45:46.293Z,46.80
2023-01-02T13:48:35.087Z,46.90
2023-01-02T13:51:29.063Z,47.30
2023-01-02T13:54:20.971Z,47.20
2023-01-02T13:57:25.190Z,47.20
2023-01-02T14:00:16.651Z,47.20
2023-01-02T14:03:23.938Z,48.10
2023-01-02T14:06:32.918Z,47.50
2023-01-02T14:09:20.948Z,47.80
2023-01-02T14:12:12.950Z,47.80
2023-01-02T14:15:02.862Z,47.80
2023-01-02T14:18:10.991Z,47.80
2023-01-02T14:20:59.542Z,47.90
2023-01-02T14:24:17.946Z,48.10
2023-01-02T14:27:02.135Z,47.90
2023-01-02T14:29:56.837Z,47.90
2023-01-02T14:32:44.389Z,48.00
2023-01-02T14:35:36.389Z,48.00
2023-01-02T14:38:28.710Z,48.00
2023-01-02T14:42:01.981Z,47.80
2023-01-02T14:45:03.222Z,47.80
2023-01-02T14:48:04.152Z,47.60
2023-01-02T14:50:52.269Z,47.50
2023-01-02T14:53:50.349Z,47.50
2023-01-02T14:56:38.745Z,47.50
2023-01-02T14:59:29.237Z,47.40
2023-01-02T15:02:18.099Z,47.40
2023-01-02T15:05:28.188Z,47.40
2023-01-02T15:08:20.051Z,47.40
2023-01-02T15:11:38.907Z,47.50
2023-01-02T15:14:24.965Z,47.60
2023-01-02T15:17:22.847Z,47.60
2023-01-02T15:20:12.167Z,47.70
2023-01-02T15:23:00.575Z,47.60
2023-01-02T15:25:46.732Z,47.50
2023-01-02T15:28:34.657Z,47.50
2023-01-02T15:31:20.411Z,47.50
2023-01-02T15:34:05.931Z,47.60
2023-01-02T15:36:52.117Z,47.90
2023-01-02T15:39:43.627Z,48.40
2023-01-02T15:42:48.130Z,48.60
2023-01-02T15:45:34.359Z,48.80
2023-01-02T15:48:23.610Z,49.00
2023-01-02T15:51:40.126Z,49.50
2023-01-02T15:54:28.529Z,50.20
2023-01-02T15:57:16.260Z,51.20
2023-01-02T16:00:02.108Z,52.30
2023-01-02T16:02:47.817Z,52.80
2023-01-02T16:05:53.268Z,53.60
2023-01-02T16:08:38.812Z,54.10
2023-01-02T16:11:28.006Z,54.50
2023-01-02T16:14:19.666Z,55.20
2023-01-02T16:17:20.134Z,55.10
2023-01-02T16:20:14.639Z,55.10
2023-01-02T16:23:07.477Z,55.00
2023-01-02T16:25:57.507Z,55.10
2023-01-02T16:28:43.915Z,55.50
2023-01-02T16:31:29.731Z,55.80
2023-01-02T16:34:24.711Z,55.90
2023-01-02T16:37:33.583Z,56.00
2023-01-02T16:41:01.338Z,56.00
2023-01-02T16:43:34.461Z,56.20
2023-01-02T16:46:21.935Z,56.30
2023-01-02T16:49:07.984Z,56.50
2023-01-02T16:51:54.538Z,56.70
2023-01-02T16:54:40.375Z,57.10
2023-01-02T16:57:26.158Z,57.10
2023-01-02T17:00:12.953Z,57.20
2023-01-02T17:02:58.774Z,57.30
2023-01-02T17:06:01.578Z,57.10
2023-01-02T17:08:48.501Z,56.30
2023-01-02T17:11:37.709Z,55.70
2023-01-02T17:14:23.215Z,55.60
2023-01-02T17:17:08.733Z,55.90
2023-01-02T17:19:54.014Z,56.00
2023-01-02T17:22:40.219Z,56.10
2023-01-02T17:25:28.542Z,56.60
2023-01-02T17:28:18.560Z,57.30
2023-01-02T17:31:07.239Z,57.60
2023-01-02T17:33:55.862Z,57.70
2023-01-02T17:36:42.449Z,57.80
2023-01-02T17:39:28.256Z,57.90
2023-01-02T17:42:14.102Z,57.50
2023-01-02T17:45:02.392Z,57.20
2023-01-02T17:48:01.348Z,57.00
2023-01-02T17:50:56.269Z,56.50
2023-01-02T17:53:42.209Z,56.40
2023-01-02T17:56:27.465Z,56.30
2023-01-02T17:59:14.012Z,56.40
2023-01-02T18:02:01.384Z,56.50
2023-01-02T18:04:54.602Z,57.30
2023-01-02T18:07:40.667Z,56.60
2023-01-02T18:10:32.582Z,56.80
2023-01-02T18:13:18.986Z,56.80
2023-01-02T18:16:15.212Z,57.10
2023-01-02T18:19:07.223Z,57.30
2023-01-02T18:21:54.007Z,57.40
2023-01-02T18:24:41.960Z,57.50
2023-01-02T18:27:32.671Z,57.50
2023-01-02T18:30:23.656Z,57.50
2023-01-02T18:33:17.656Z,57.20
2023-01-02T18:36:14.199Z,56.90
2023-01-02T18:39:31.394Z,56.60
2023-01-02T18:42:20.936Z,56.50
2023-01-02T18:45:15.080Z,56.40
2023-01-02T18:48:01.317Z,56.20
2023-01-02T18:50:59.851Z,56.20
2023-01-02T18:53:54.180Z,55.60
2023-01-02T18:56:40.040Z,55.70
2023-01-02T18:59:33.430Z,55.40
2023-01-02T19:02:56.960Z,55.50
2023-01-02T19:05:47.091Z,55.40
2023-01-02T19:08:41.686Z,55.30
2023-01-02T19:11:52.250Z,55.20
2023-01-02T19:14:43.013Z,55.40
2023-01-02T19:17:32.190Z,55.70
2023-01-02T19:20:17.774Z,55.80
2023-01-02T19:23:37.972Z,56.00
2023-01-02T19:26:36.576Z,56.40
2023-01-02T19:29:26.417Z,56.80
2023-01-02T19:32:15.118Z,57.20
2023-01-02T19:35:24.859Z,57.60
2023-01-02T19:38:29.264Z,57.80
2023-01-02T19:41:14.980Z,58.00
2023-01-02T19:44:00.448Z,58.00
2023-01-02T19:46:48.151Z,58.00
2023-01-02T19:49:37.984Z,58.40
2023-01-02T19:52:24.651Z,58.80
2023-01-02T19:55:15.832Z,59.00
2023-01-02T19:58:01.191Z,59.20
2023-01-02T20:00:47.555Z,59.20
2023-01-02T20:03:32.861Z,59.50
2023-01-02T20:06:20.635Z,59.70
2023-01-02T20:09:06.509Z,60.00
2023-01-02T20:12:11.393Z,60.20
2023-01-02T20:14:58.370Z,60.30
2023-01-02T20:17:45.175Z,60.60
2023-01-02T20:20:30.840Z,60.50
2023-01-02T20:23:16.574Z,60.60
2023-01-02T20:26:03.744Z,60.80
2023-01-02T20:28:49.184Z,60.90
2023-01-02T20:31:35.444Z,61.10
2023-01-02T20:34:22.003Z,61.40
2023-01-02T20:37:09.462Z,61.40
2023-01-02T20:39:55.507Z,61.60
2023-01-02T20:42:43.973Z,61.90
2023-01-02T20:45:31.804Z,62.10
2023-01-02T20:48:17.113Z,62.10
2023-01-02T20:51:03.149Z,62.40
2023-01-02T20:53:48.767Z,62.30
2023-01-02T20:56:35.225Z,62.30
2023-01-02T20:59:21.403Z,62.30
2023-01-02T21:02:06.981Z,62.30
2023-01-02T21:04:52.907Z,62.50
2023-01-02T21:07:40.393Z,62.80
2023-01-02T21:10:25.552Z,62.80
2023-01-02T21:13:14.104Z,62.70
2023-01-02T21:16:02.191Z,62.80
2023-01-02T21:18:48.085Z,63.00
2023-01-02T21:21:36.008Z,63.10
2023-01-02T21:24:21.434Z,63.10
2023-01-02T21:27:12.939Z,63.30
2023-01-02T21:29:58.764Z,63.30
2023-01-02T21:32:44.220Z,63.50
2023-01-02T21:35:29.418Z,63.60
2023-01-02T21:38:15.395Z,63.60
2023-01-02T21:41:19.576Z,63.60
2023-01-02T21:44:07.730Z,63.50
2023-01-02T21:46:56.503Z,63.50
2023-01-02T21:49:42.578Z,63.40
2023-01-02T21:52:30.180Z,64.20
2023-01-02T21:55:17.644Z,64.90
2023-01-02T21:58:18.893Z,65.50
2023-01-02T22:01:05.005Z,65.60
2023-01-02T22:03:50.789Z,66.00
2023-01-02T22:06:36.781Z,65.90
2023-01-02T22:09:27.231Z,67.00
2023-01-02T22:12:12.406Z,66.70
2023-01-02T22:14:57.832Z,66.90
2023-01-02T22:17:43.160Z,67.10
2023-01-02T22:20:33.783Z,66.90
2023-01-02T22:23:19.121Z,67.20
2023-01-02T22:26:04.816Z,67.30
2023-01-02T22:28:50.545Z,67.70
2023-01-02T22:31:36.183Z,68.00
2023-01-02T22:34:24.275Z,67.90
2023-01-02T22:37:21.802Z,68.20
2023-01-02T22:40:08.898Z,68.30
2023-01-02T22:43:03.920Z,68.30
2023-01-02T22:45:53.129Z,68.50
2023-01-02T22:48:42.299Z,68.30
2023-01-02T22:52:05.319Z,68.30
2023-01-02T22:54:42.304Z,68.50
2023-01-02T22:57:28.870Z,68.50
2023-01-02T23:00:19.417Z,68.60
2023-01-02T23:03:12.897Z,69.40
2023-01-02T23:05:58.357Z,70.10
2023-01-02T23:08:44.060Z,70.30
2023-01-02T23:11:29.935Z,70.40
2023-01-02T23:14:17.800Z,70.40
2023-01-02T23:17:21.743Z,70.50
2023-01-02T23:20:08.068Z,71.00
2023-01-02T23:22:54.608Z,70.70
2023-01-02T23:25:43.086Z,69.90
2023-01-02T23:29:05.260Z,69.80
2023-01-02T23:31:42.009Z,69.10
2023-01-02T23:34:28.436Z,69.00
2023-01-02T23:37:21.715Z,68.20
2023-01-02T23:40:07.809Z,68.10
2023-01-02T23:42:55.919Z,68.00
2023-01-02T23:45:41.943Z,68.10
2023-01-02T23:48:27.358Z,67.90
2023-01-02T23:51:15.269Z,68.30
2023-01-02T23:54:04.003Z,68.60
2023-01-02T23:56:53.365Z,68.30
2023-01-02T23:59:42.198Z,68.20
